createdAt,value
2023-05-05T00:02:18.386Z,25.20
2023-05-05T00:04:55.035Z,25.20
2023-05-05T00:07:30.091Z,25.40
2023-05-05T00:10:16.197Z,25.50
2023-05-05T00:12:52.206Z,25.50
2023-05-05T00:15:31.849Z,25.80
2023-05-05T00:18:06.616Z,26.90
2023-05-05T00:20:45.100Z,28.30
2023-05-05T00:23:20.836Z,30.50
2023-05-05T00:26:09.194Z,30.80
2023-05-05T00:28:45.385Z,29.60
2023-05-05T00:31:25.137Z,28.20
2023-05-05T00:34:02.841Z,27.60
2023-05-05T00:36:38.790Z,26.80
2023-05-05T00:39:15.908Z,26.80
2023-05-05T00:41:54.083Z,26.90
2023-05-05T00:44:44.078Z,27.00
2023-05-05T00:47:19.872Z,27.00
2023-05-05T00:49:56.843Z,27.00
2023-05-05T00:52:37.740Z,27.00
2023-05-05T00:55:32.264Z,27.00
2023-05-05T00:58:15.401Z,27.00
2023-05-05T01:00:54.665Z,26.90
2023-05-05T01:03:33.627Z,26.90
2023-05-05T01:06:20.451Z,26.80
2023-05-05T01:09:06.662Z,26.80
2023-05-05T01:11:52.119Z,26.80
2023-05-05T01:14:45.789Z,26.80
2023-05-05T01:17:23.062Z,26.70
2023-05-05T01:20:12.185Z,26.70
2023-05-05T01:22:51.658Z,26.60
2023-05-05T01:26:21.953Z,26.50
2023-05-05T01:29:46.205Z,26.50
2023-05-05T01:32:27.290Z,26.60
2023-05-05T01:35:08.178Z,26.70
2023-05-05T01:37:54.668Z,26.50
2023-05-05T01:40:34.465Z,26.60
2023-05-05T01:43:13.093Z,26.60
2023-05-05T01:45:50.343Z,26.60
2023-05-05T01:48:52.232Z,26.70
2023-05-05T01:51:30.466Z,26.80
2023-05-05T01:54:12.518Z,27.30
2023-05-05T01:56:52.115Z,27.60
2023-05-05T01:59:32.421Z,27.30
2023-05-05T02:02:08.315Z,26.80
2023-05-05T02:04:49.135Z,27.20
2023-05-05T02:07:23.736Z,28.00
2023-05-05T02:09:59.016Z,28.20
2023-05-05T02:12:34.677Z,28.70
2023-05-05T02:15:13.334Z,29.30
2023-05-05T02:17:48.938Z,29.80
2023-05-05T02:20:32.422Z,30.00
2023-05-05T02:23:10.340Z,30.50
2023-05-05T02:25:52.789Z,30.80
2023-05-05T02:28:30.712Z,31.30
2023-05-05T02:31:06.926Z,31.60
2023-05-05T02:33:43.670Z,32.00
2023-05-05T02:36:28.412Z,32.00
2023-05-05T02:39:21.450Z,32.20
2023-05-05T02:41:59.157Z,32.50
2023-05-05T02:44:42.256Z,32.20
2023-05-05T02:47:21.884Z,32.50
2023-05-05T02:50:06.327Z,32.60
2023-05-05T02:52:44.528Z,33.00
2023-05-05T02:55:24.848Z,32.70
2023-05-05T02:58:11.385Z,32.20
2023-05-05T03:00:56.888Z,31.70
2023-05-05T03:03:50.142Z,32.20
2023-05-05T03:06:29.633Z,31.90
2023-05-05T03:09:14.932Z,31.90
2023-05-05T03:12:03.007Z,31.80
2023-05-05T03:14:47.125Z,31.70
2023-05-05T03:17:23.875Z,31.90
2023-05-05T03:20:03.479Z,32.10
2023-05-05T03:22:47.685Z,31.80
2023-05-05T03:25:28.196Z,31.90
2023-05-05T03:28:04.055Z,32.20
2023-05-05T03:30:39.782Z,32.50
2023-05-05T03:33:15.159Z,32.90
2023-05-05T03:35:49.310Z,32.70
2023-05-05T03:38:26.254Z,32.80
2023-05-05T03:41:11.240Z,32.80
2023-05-05T03:43:50.411Z,32.40
2023-05-05T03:46:24.727Z,32.70
2023-05-05T03:49:01.713Z,32.20
2023-05-05T03:51:41.035Z,32.30
2023-05-05T03:54:18.631Z,32.90
2023-05-05T03:56:55.510Z,33.10
2023-05-05T03:59:32.576Z,32.60
2023-05-05T04:02:08.984Z,32.40
2023-05-05T04:04:45.222Z,31.80
2023-05-05T04:07:23.649Z,31.70
2023-05-05T04:10:17.055Z,31.80
2023-05-05T04:12:54.387Z,32.00
2023-05-05T04:15:30.379Z,32.00
2023-05-05T04:18:06.469Z,32.20
2023-05-05T04:20:43.753Z,31.90
2023-05-05T04:23:21.858Z,31.70
2023-05-05T04:26:01.913Z,31.70
2023-05-05T04:28:42.207Z,30.90
2023-05-05T04:31:22.663Z,31.20
2023-05-05T04:33:59.741Z,31.10
2023-05-05T04:36:34.272Z,31.20
2023-05-05T04:39:13.764Z,31.40
2023-05-05T04:41:52.956Z,31.60
2023-05-05T04:44:29.229Z,31.10
2023-05-05T04:47:06.915Z,31.10
2023-05-05T04:49:46.041Z,31.00
2023-05-05T04:52:24.548Z,31.20
2023-05-05T04:55:13.693Z,31.30
2023-05-05T04:57:46.990Z,31.20
2023-05-05T05:00:25.213Z,31.00
2023-05-05T05:03:06.978Z,31.30
2023-05-05T05:05:43.396Z,31.40
2023-05-05T05:08:22.055Z,31.50
2023-05-05T05:11:09.539Z,31.80
2023-05-05T05:13:45.428Z,32.20
2023-05-05T05:16:22.094Z,32.20
2023-05-05T05:19:04.781Z,31.50
2023-05-05T05:21:42.231Z,31.70
2023-05-05T05:24:19.316Z,31.80
2023-05-05T05:27:04.715Z,31.80
2023-05-05T05:29:40.986Z,31.70
2023-05-05T05:32:26.762Z,31.80
2023-05-05T05:35:04.752Z,31.70
2023-05-05T05:37:42.315Z,31.20
2023-05-05T05:40:16.176Z,31.40
2023-05-05T05:42:52.368Z,30.90
2023-05-05T05:45:28.380Z,31.00
2023-05-05T05:48:12.277Z,31.40
2023-05-05T05:50:52.532Z,31.40
2023-05-05T05:53:29.713Z,31.40
2023-05-05T05:56:04.832Z,31.50
2023-05-05T05:58:44.477Z,31.20
2023-05-05T06:01:19.499Z,30.70
2023-05-05T06:04:00.863Z,30.70
2023-05-05T06:06:37.620Z,31.00
2023-05-05T06:09:12.516Z,31.00
2023-05-05T06:11:48.681Z,30.40
2023-05-05T06:14:22.047Z,30.40
2023-05-05T06:17:03.898Z,30.40
2023-05-05T06:19:42.572Z,30.70
2023-05-05T06:22:18.426Z,30.70
2023-05-05T06:24:54.685Z,30.60
2023-05-05T06:27:32.511Z,30.10
2023-05-05T06:30:08.166Z,30.00
2023-05-05T06:35:43.060Z,29.90
2023-05-05T06:38:17.621Z,30.10
2023-05-05T06:40:52.932Z,30.20
2023-05-05T06:43:28.203Z,30.20
2023-05-05T06:46:07.053Z,30.10
2023-05-05T06:48:43.356Z,30.20
2023-05-05T06:51:21.077Z,30.30
2023-05-05T06:53:59.343Z,30.20
2023-05-05T06:56:36.575Z,30.30
2023-05-05T06:59:19.176Z,30.20
2023-05-05T07:01:57.403Z,30.10
2023-05-05T07:04:32.810Z,30.20
2023-05-05T07:07:15.247Z,30.20
2023-05-05T07:09:48.989Z,30.30
2023-05-05T07:12:25.830Z,30.30
2023-05-05T07:15:12.189Z,30.10
2023-05-05T07:17:58.994Z,29.60
2023-05-05T07:20:34.565Z,29.80
2023-05-05T07:23:13.897Z,29.80
2023-05-05T07:25:50.786Z,29.70
2023-05-05T07:28:25.303Z,30.00
2023-05-05T07:31:05.275Z,30.10
2023-05-05T07:33:43.470Z,30.00
2023-05-05T07:36:20.951Z,30.20
2023-05-05T07:39:07.685Z,30.10
2023-05-05T07:41:43.484Z,30.10
2023-05-05T07:44:18.219Z,30.20
2023-05-05T07:46:57.867Z,30.20
2023-05-05T07:49:33.821Z,30.10
2023-05-05T07:52:07.142Z,29.90
2023-05-05T07:54:49.209Z,30.00
2023-05-05T07:57:25.343Z,30.10
2023-05-05T08:00:05.792Z,30.10
2023-05-05T08:02:48.275Z,30.10
2023-05-05T08:05:27.869Z,30.00
2023-05-05T08:08:02.324Z,30.00
2023-05-05T08:10:40.966Z,30.10
2023-05-05T08:13:18.145Z,30.00
2023-05-05T08:15:51.652Z,30.10
2023-05-05T08:18:26.406Z,30.20
2023-05-05T08:21:01.174Z,30.20
2023-05-05T08:23:38.408Z,30.30
2023-05-05T08:26:16.273Z,30.20
2023-05-05T08:28:52.065Z,30.10
2023-05-05T08:31:30.312Z,29.90
2023-05-05T08:34:05.100Z,29.90
2023-05-05T08:36:42.430Z,29.80
2023-05-05T08:39:20.825Z,29.80
2023-05-05T08:41:57.421Z,29.90
2023-05-05T08:44:36.624Z,29.80
2023-05-05T08:47:12.889Z,29.90
2023-05-05T08:49:55.591Z,29.80
2023-05-05T08:52:47.635Z,29.70
2023-05-05T08:55:27.972Z,29.70
2023-05-05T08:58:07.891Z,29.60
2023-05-05T09:00:49.704Z,29.60
2023-05-05T09:03:29.298Z,29.40
2023-05-05T09:06:05.875Z,29.40
2023-05-05T09:08:42.560Z,29.20
2023-05-05T09:11:21.976Z,29.10
2023-05-05T09:13:57.988Z,29.10
2023-05-05T09:16:34.081Z,29.10
2023-05-05T09:19:13.690Z,29.10
2023-05-05T09:21:52.818Z,29.10
2023-05-05T09:24:25.812Z,29.00
2023-05-05T09:27:04.918Z,28.80
2023-05-05T09:29:52.136Z,28.80
2023-05-05T09:32:38.067Z,28.80
2023-05-05T09:35:25.718Z,28.80
2023-05-05T09:38:05.218Z,28.70
2023-05-05T09:40:51.701Z,28.70
2023-05-05T09:43:25.847Z,28.80
2023-05-05T09:46:14.838Z,28.70
2023-05-05T09:49:02.610Z,28.70
2023-05-05T09:51:37.806Z,28.80
2023-05-05T09:54:17.073Z,28.80
2023-05-05T09:56:53.027Z,28.70
2023-05-05T09:59:28.852Z,28.60
2023-05-05T10:02:16.964Z,28.50
2023-05-05T10:04:53.944Z,28.50
2023-05-05T10:07:31.539Z,28.30
2023-05-05T10:10:10.331Z,28.20
2023-05-05T10:12:46.554Z,28.30
2023-05-05T10:15:25.053Z,28.20
2023-05-05T10:18:08.247Z,28.10
2023-05-05T10:20:44.843Z,28.10
2023-05-05T10:23:25.878Z,28.00
2023-05-05T10:26:06.785Z,28.00
2023-05-05T10:28:53.662Z,27.90
2023-05-05T10:31:34.400Z,27.70
2023-05-05T10:34:19.170Z,27.70
2023-05-05T10:36:54.018Z,27.70
2023-05-05T10:39:29.706Z,27.60
2023-05-05T10:42:08.453Z,27.60
2023-05-05T10:44:43.188Z,27.50
2023-05-05T10:47:19.805Z,27.40
2023-05-05T10:50:15.712Z,27.30
2023-05-05T10:53:02.124Z,27.10
2023-05-05T10:58:56.051Z,27.20
2023-05-05T11:01:43.817Z,27.10
2023-05-05T11:04:26.861Z,27.10
2023-05-05T11:07:33.037Z,27.10
2023-05-05T11:10:10.503Z,27.10
2023-05-05T11:13:25.956Z,27.10
2023-05-05T11:16:03.326Z,27.10
2023-05-05T11:18:45.990Z,27.00
2023-05-05T11:21:23.501Z,27.00
2023-05-05T11:24:33.230Z,27.00
2023-05-05T11:27:11.128Z,26.90
2023-05-05T11:30:17.410Z,26.90
2023-05-05T11:33:29.902Z,26.90
2023-05-05T11:36:08.318Z,26.80
2023-05-05T11:39:10.233Z,26.80
2023-05-05T11:42:26.159Z,26.90
2023-05-05T11:45:10.140Z,26.70
2023-05-05T11:50:41.578Z,26.60
2023-05-05T11:53:23.290Z,26.70
2023-05-05T11:56:12.257Z,26.80
2023-05-05T11:58:51.866Z,26.80
2023-05-05T12:01:28.979Z,26.70
2023-05-05T12:04:10.151Z,26.50
2023-05-05T12:06:51.643Z,26.50
2023-05-05T12:09:30.768Z,26.50
2023-05-05T12:12:10.776Z,26.40
2023-05-05T12:14:55.559Z,26.50
2023-05-05T12:17:41.410Z,26.40
2023-05-05T12:20:16.596Z,26.40
2023-05-05T12:22:56.129Z,26.30
2023-05-05T12:25:43.361Z,26.20
2023-05-05T12:28:24.794Z,26.00
2023-05-05T12:31:17.747Z,25.90
2023-05-05T12:33:53.406Z,25.90
2023-05-05T12:36:29.243Z,25.90
2023-05-05T12:39:07.966Z,25.90
2023-05-05T12:41:46.797Z,25.90
2023-05-05T12:44:20.030Z,25.90
2023-05-05T12:47:17.825Z,25.80
2023-05-05T12:49:55.669Z,25.70
2023-05-05T12:52:47.050Z,25.50
2023-05-05T12:55:24.736Z,25.40
2023-05-05T12:58:07.152Z,25.40
2023-05-05T13:00:53.996Z,25.50
2023-05-05T13:03:32.850Z,25.40
2023-05-05T13:06:26.054Z,25.50
2023-05-05T13:09:07.956Z,25.50
2023-05-05T13:11:46.310Z,25.50
2023-05-05T13:14:22.593Z,25.40
2023-05-05T13:16:58.571Z,25.30
2023-05-05T13:19:37.682Z,25.10
2023-05-05T13:22:14.811Z,24.90
2023-05-05T13:24:53.033Z,24.50
2023-05-05T13:27:35.890Z,24.40
2023-05-05T13:30:12.572Z,24.40
2023-05-05T13:32:49.647Z,24.40
2023-05-05T13:35:25.933Z,24.30
2023-05-05T13:38:04.352Z,24.40
2023-05-05T13:40:45.618Z,24.50
2023-05-05T13:43:25.105Z,24.40
2023-05-05T13:46:18.700Z,24.10
2023-05-05T13:48:56.779Z,24.10
2023-05-05T13:51:39.060Z,24.20
2023-05-05T13:54:16.065Z,24.10
2023-05-05T13:57:04.506Z,23.70
2023-05-05T13:59:43.146Z,23.60
2023-05-05T14:02:22.900Z,23.50
2023-05-05T14:04:58.905Z,23.60
2023-05-05T14:07:49.870Z,23.70
2023-05-05T14:10:30.174Z,23.60
2023-05-05T14:13:17.893Z,23.40
2023-05-05T14:16:30.067Z,23.40
2023-05-05T14:19:08.632Z,23.60
2023-05-05T14:21:44.548Z,23.60
2023-05-05T14:24:20.074Z,23.70
2023-05-05T14:29:56.920Z,23.90
2023-05-05T14:32:35.171Z,23.90
2023-05-05T14:35:12.199Z,24.00
2023-05-05T14:37:45.662Z,24.00
2023-05-05T14:40:25.526Z,24.00
2023-05-05T14:43:00.446Z,24.00
2023-05-05T14:45:35.390Z,24.00
2023-05-05T14:50:57.645Z,23.60
2023-05-05T14:53:32.648Z,23.40
2023-05-05T14:56:11.220Z,23.10
2023-05-05T14:58:54.187Z,23.30
2023-05-05T15:01:31.120Z,23.20
2023-05-05T15:04:09.988Z,23.20
2023-05-05T15:06:48.774Z,23.10
2023-05-05T15:09:31.829Z,23.10
2023-05-05T15:12:10.600Z,23.10
2023-05-05T15:14:48.765Z,22.90
2023-05-05T15:17:29.716Z,22.70
2023-05-05T15:20:08.267Z,23.00
2023-05-05T15:22:49.633Z,22.90
2023-05-05T15:25:36.569Z,23.30
2023-05-05T15:28:17.584Z,23.20
2023-05-05T15:30:56.743Z,23.00
2023-05-05T15:33:32.999Z,22.90
2023-05-05T15:36:11.690Z,23.00
2023-05-05T15:38:47.275Z,23.10
2023-05-05T15:41:31.413Z,23.10
2023-05-05T15:44:09.832Z,23.20
2023-05-05T15:46:50.671Z,23.30
2023-05-05T15:49:26.967Z,23.30
2023-05-05T15:52:04.654Z,23.40
2023-05-05T15:54:41.441Z,23.40
2023-05-05T15:57:16.885Z,23.50
2023-05-05T15:59:56.560Z,23.60
2023-05-05T16:02:37.574Z,23.70
2023-05-05T16:05:14.251Z,23.70
2023-05-05T16:07:56.560Z,23.70
2023-05-05T16:10:34.840Z,23.70
2023-05-05T16:13:12.575Z,23.70
2023-05-05T16:15:52.229Z,23.60
2023-05-05T16:18:26.239Z,23.60
2023-05-05T16:21:05.649Z,23.40
2023-05-05T16:23:39.478Z,23.50
2023-05-05T16:26:15.635Z,23.30
2023-05-05T16:28:51.589Z,23.00
2023-05-05T16:31:31.285Z,23.00
2023-05-05T16:34:17.866Z,22.90
2023-05-05T16:37:11.027Z,22.80
2023-05-05T16:39:50.216Z,22.90
2023-05-05T16:42:26.290Z,22.80
2023-05-05T16:45:05.963Z,22.80
2023-05-05T16:47:45.534Z,22.50
2023-05-05T16:50:23.690Z,22.60
2023-05-05T16:52:59.508Z,22.90
2023-05-05T16:55:34.413Z,22.70
2023-05-05T16:58:12.279Z,22.60
2023-05-05T17:00:51.383Z,22.40
2023-05-05T17:03:28.763Z,22.40
2023-05-05T17:06:04.048Z,22.60
2023-05-05T17:08:40.121Z,22.70
2023-05-05T17:11:14.545Z,22.70
2023-05-05T17:13:55.075Z,22.50
2023-05-05T17:16:33.124Z,22.40
2023-05-05T17:19:11.125Z,22.40
2023-05-05T17:21:48.489Z,22.20
2023-05-05T17:24:23.826Z,22.30
2023-05-05T17:26:57.532Z,22.30
2023-05-05T17:29:43.216Z,22.30
2023-05-05T17:32:22.420Z,22.40
2023-05-05T17:35:04.207Z,22.30
2023-05-05T17:37:37.923Z,22.00
2023-05-05T17:40:14.027Z,21.80
2023-05-05T17:42:51.459Z,21.90
2023-05-05T17:45:29.288Z,22.00
2023-05-05T17:48:06.500Z,22.00
2023-05-05T17:50:46.660Z,22.00
2023-05-05T17:53:25.066Z,21.90
2023-05-05T17:55:59.401Z,21.80
2023-05-05T17:58:37.551Z,21.90
2023-05-05T18:01:26.074Z,21.80
2023-05-05T18:04:18.480Z,22.10
2023-05-05T18:06:58.126Z,22.20
2023-05-05T18:09:37.372Z,22.20
2023-05-05T18:12:21.193Z,22.30
2023-05-05T18:14:56.737Z,22.20
2023-05-05T18:17:30.583Z,22.40
2023-05-05T18:20:05.666Z,22.40
2023-05-05T18:22:42.267Z,22.20
2023-05-05T18:25:17.736Z,22.30
2023-05-05T18:27:52.828Z,22.30
2023-05-05T18:30:27.590Z,22.30
2023-05-05T18:33:01.823Z,22.30
2023-05-05T18:35:38.474Z,22.10
2023-05-05T18:38:14.183Z,22.00
2023-05-05T18:40:50.423Z,22.10
2023-05-05T18:43:27.572Z,22.20
2023-05-05T18:46:10.857Z,22.50
2023-05-05T18:48:46.750Z,22.60
2023-05-05T18:51:22.295Z,22.70
2023-05-05T18:54:04.015Z,22.80
2023-05-05T18:56:40.265Z,22.80
2023-05-05T18:59:17.679Z,22.60
2023-05-05T19:01:59.430Z,22.60
2023-05-05T19:04:34.502Z,22.70
2023-05-05T19:07:14.493Z,22.70
2023-05-05T19:09:59.559Z,22.70
2023-05-05T19:12:34.084Z,22.70
2023-05-05T19:15:11.074Z,22.70
2023-05-05T19:17:47.650Z,22.80
2023-05-05T19:20:24.223Z,22.80
2023-05-05T19:23:06.357Z,22.60
2023-05-05T19:25:57.256Z,22.50
2023-05-05T19:28:31.678Z,22.50
2023-05-05T19:31:05.733Z,22.30
2023-05-05T19:33:42.064Z,22.20
2023-05-05T19:39:30.044Z,22.30
2023-05-05T19:42:05.236Z,22.30
2023-05-05T19:44:40.740Z,22.20
2023-05-05T19:47:18.624Z,22.30
2023-05-05T19:49:53.834Z,22.30
2023-05-05T19:52:32.735Z,22.30
2023-05-05T19:55:11.574Z,22.30
2023-05-05T19:57:49.641Z,22.20
2023-05-05T20:00:30.334Z,22.40
2023-05-05T20:03:03.699Z,22.30
2023-05-05T20:05:43.608Z,22.20
2023-05-05T20:08:21.414Z,22.00
2023-05-05T20:10:59.120Z,22.10
2023-05-05T20:13:36.193Z,22.00
2023-05-05T20:16:14.798Z,21.80
2023-05-05T20:18:56.481Z,21.60
2023-05-05T20:21:30.358Z,21.60
2023-05-05T20:24:14.057Z,21.50
2023-05-05T20:27:04.937Z,21.60
2023-05-05T20:29:55.473Z,21.70
2023-05-05T20:32:34.342Z,22.00
2023-05-05T20:35:11.128Z,22.20
2023-05-05T20:37:46.965Z,22.30
2023-05-05T20:40:34.946Z,22.40
2023-05-05T20:43:16.828Z,22.40
2023-05-05T20:45:53.496Z,22.20
2023-05-05T20:48:31.721Z,22.30
2023-05-05T20:51:15.656Z,22.00
2023-05-05T20:53:53.045Z,22.10
2023-05-05T20:56:28.725Z,22.10
2023-05-05T20:59:06.285Z,22.10
2023-05-05T21:01:44.565Z,22.20
2023-05-05T21:04:20.561Z,22.20
2023-05-05T21:06:55.941Z,22.30
2023-05-05T21:09:38.099Z,22.20
2023-05-05T21:12:15.664Z,22.30
2023-05-05T21:14:55.491Z,22.20
2023-05-05T21:17:37.356Z,22.10
2023-05-05T21:20:12.110Z,22.00
2023-05-05T21:22:51.013Z,22.00
2023-05-05T21:25:34.535Z,22.10
2023-05-05T21:28:09.736Z,22.10
2023-05-05T21:30:45.199Z,22.20
2023-05-05T21:33:27.635Z,22.30
2023-05-05T21:36:22.282Z,22.40
2023-05-05T21:39:11.103Z,22.40
2023-05-05T21:41:45.591Z,22.40
2023-05-05T21:44:22.156Z,22.30
2023-05-05T21:47:01.876Z,22.30
2023-05-05T21:49:37.886Z,22.30
2023-05-05T21:52:15.967Z,22.40
2023-05-05T21:54:55.471Z,22.40
2023-05-05T21:57:31.266Z,22.40
2023-05-05T22:00:04.946Z,22.50
2023-05-05T22:02:48.220Z,22.50
2023-05-05T22:05:26.590Z,22.50
2023-05-05T22:08:04.738Z,22.50
2023-05-05T22:10:40.684Z,22.60
2023-05-05T22:13:19.625Z,22.60
2023-05-05T22:15:56.478Z,22.50
2023-05-05T22:18:36.965Z,22.60
2023-05-05T22:21:14.156Z,22.50
2023-05-05T22:23:47.862Z,22.30
2023-05-05T22:26:27.410Z,22.30
2023-05-05T22:29:02.250Z,22.40
2023-05-05T22:31:40.687Z,22.40
2023-05-05T22:34:25.061Z,22.50
2023-05-05T22:37:10.478Z,22.50
2023-05-05T22:39:46.274Z,22.60
2023-05-05T22:42:20.072Z,22.60
2023-05-05T22:44:54.923Z,22.50
2023-05-05T22:47:47.117Z,22.30
2023-05-05T22:50:26.383Z,22.40
2023-05-05T22:53:03.373Z,22.50
2023-05-05T22:55:41.651Z,22.50
2023-05-05T22:58:19.944Z,22.60
2023-05-05T23:00:53.706Z,22.60
2023-05-05T23:03:26.652Z,22.50
2023-05-05T23:06:10.956Z,22.60
2023-05-05T23:09:06.902Z,22.70
2023-05-05T23:11:43.329Z,22.70
2023-05-05T23:14:18.739Z,22.80
2023-05-05T23:16:55.018Z,22.90
2023-05-05T23:19:33.862Z,23.00
2023-05-05T23:22:07.716Z,23.00
2023-05-05T23:24:50.109Z,23.10
2023-05-05T23:27:26.909Z,23.10
2023-05-05T23:30:01.018Z,23.10
2023-05-05T23:33:07.972Z,23.20
2023-05-05T23:35:44.927Z,23.30
2023-05-05T23:38:18.287Z,23.40
2023-05-05T23:40:55.112Z,23.30
2023-05-05T23:43:28.051Z,23.30
2023-05-05T23:46:05.410Z,23.20
2023-05-05T23:48:41.812Z,23.40
2023-05-05T23:51:18.919Z,23.50
2023-05-05T23:53:55.527Z,23.40
2023-05-05T23:56:31.775Z,23.10
2023-05-05T23:59:12.699Z,23.50
